createdAt,value
2023-04-17T00:02:01.546Z,100.00
2023-04-17T00:05:03.099Z,100.00
2023-04-17T00:08:04.566Z,100.00
2023-04-17T00:11:08.670Z,100.00
2023-04-17T00:14:10.702Z,100.00
2023-04-17T00:17:12.100Z,100.00
2023-04-17T00:20:13.611Z,100.00
2023-04-17T00:23:14.962Z,100.00
2023-04-17T00:26:16.526Z,100.00
2023-04-17T00:29:18.093Z,100.00
2023-04-17T00:32:19.555Z,100.00
2023-04-17T00:35:21.120Z,100.00
2023-04-17T00:38:22.597Z,100.00
2023-04-17T00:41:24.155Z,100.00
2023-04-17T00:44:25.583Z,100.00
2023-04-17T00:47:27.435Z,100.00
2023-04-17T00:50:29.501Z,100.00
2023-04-17T00:53:31.580Z,100.00
2023-04-17T00:56:33.395Z,100.00
2023-04-17T00:59:37.125Z,100.00
2023-04-17T01:02:38.688Z,100.00
2023-04-17T01:05:41.207Z,100.00
2023-04-17T01:08:43.890Z,100.00
2023-04-17T01:11:45.806Z,100.00
2023-04-17T01:14:50.811Z,100.00
2023-04-17T01:17:52.249Z,100.00
2023-04-17T01:20:53.731Z,100.00
2023-04-17T01:23:55.771Z,100.00
2023-04-17T01:27:03.761Z,100.00
2023-04-17T01:30:05.863Z,100.00
2023-04-17T01:33:14.171Z,100.00
2023-04-17T01:36:16.264Z,100.00
2023-04-17T01:39:18.246Z,100.00
2023-04-17T01:42:19.627Z,100.00
2023-04-17T01:45:21.360Z,100.00
2023-04-17T01:48:22.728Z,100.00
2023-04-17T01:51:24.208Z,100.00
2023-04-17T01:54:25.932Z,100.00
2023-04-17T01:57:28.161Z,100.00
2023-04-17T02:00:30.003Z,100.00
2023-04-17T02:03:32.583Z,100.00
2023-04-17T02:06:34.531Z,100.00
2023-04-17T02:09:36.143Z,100.00
2023-04-17T02:12:37.586Z,100.00
2023-04-17T02:15:39.074Z,100.00
2023-04-17T02:18:40.878Z,100.00
2023-04-17T02:21:42.311Z,100.00
2023-04-17T02:24:43.921Z,100.00
2023-04-17T02:27:45.306Z,100.00
2023-04-17T02:30:46.778Z,100.00
2023-04-17T02:33:48.216Z,100.00
2023-04-17T02:36:49.666Z,100.00
2023-04-17T02:39:54.088Z,100.00
2023-04-17T02:42:55.848Z,100.00
2023-04-17T02:45:57.322Z,100.00
2023-04-17T02:49:00.470Z,100.00
2023-04-17T02:52:01.886Z,100.00
2023-04-17T02:55:03.562Z,100.00
2023-04-17T02:58:05.890Z,100.00
2023-04-17T03:01:07.319Z,100.00
2023-04-17T03:04:13.508Z,100.00
2023-04-17T03:07:18.614Z,100.00
2023-04-17T03:10:20.018Z,100.00
2023-04-17T03:13:22.139Z,100.00
2023-04-17T03:16:23.599Z,100.00
2023-04-17T03:19:25.169Z,100.00
2023-04-17T03:22:26.641Z,100.00
2023-04-17T03:25:28.227Z,100.00
2023-04-17T03:28:29.768Z,100.00
2023-04-17T03:31:31.229Z,100.00
2023-04-17T03:34:32.743Z,100.00
2023-04-17T03:37:34.407Z,100.00
2023-04-17T03:40:36.561Z,100.00
2023-04-17T03:43:37.977Z,100.00
2023-04-17T03:46:39.418Z,100.00
2023-04-17T03:49:40.856Z,100.00
2023-04-17T03:52:43.173Z,100.00
2023-04-17T03:55:44.590Z,100.00
2023-04-17T03:58:55.587Z,100.00
2023-04-17T04:01:57.605Z,100.00
2023-04-17T04:05:01.427Z,100.00
2023-04-17T04:08:03.014Z,100.00
2023-04-17T04:11:24.756Z,100.00
2023-04-17T04:14:26.382Z,100.00
2023-04-17T04:17:27.973Z,100.00
2023-04-17T04:20:30.778Z,100.00
2023-04-17T04:23:45.541Z,100.00
2023-04-17T04:26:49.782Z,100.00
2023-04-17T04:29:51.945Z,100.00
2023-04-17T04:32:56.906Z,100.00
2023-04-17T04:36:01.041Z,100.00
2023-04-17T04:39:06.755Z,100.00
2023-04-17T04:42:10.656Z,100.00
2023-04-17T04:45:26.717Z,100.00
2023-04-17T04:48:29.397Z,100.00
2023-04-17T04:51:31.837Z,100.00
2023-04-17T04:54:33.563Z,100.00
2023-04-17T04:57:36.313Z,100.00
2023-04-17T05:00:38.344Z,100.00
2023-04-17T05:03:40.799Z,100.00
2023-04-17T05:06:44.129Z,100.00
2023-04-17T05:09:45.608Z,100.00
2023-04-17T05:12:48.761Z,100.00
2023-04-17T05:15:51.440Z,100.00
2023-04-17T05:18:58.445Z,100.00
2023-04-17T05:22:19.172Z,100.00
2023-04-17T05:25:35.303Z,100.00
2023-04-17T05:28:40.865Z,100.00
2023-04-17T05:31:42.828Z,100.00
2023-04-17T05:34:57.183Z,100.00
2023-04-17T05:38:01.510Z,100.00
2023-04-17T05:41:03.083Z,100.00
2023-04-17T05:44:04.588Z,100.00
2023-04-17T05:47:07.014Z,100.00
2023-04-17T05:50:08.762Z,100.00
2023-04-17T05:53:10.681Z,100.00
2023-04-17T05:56:19.785Z,100.00
2023-04-17T05:59:21.248Z,100.00
2023-04-17T06:02:23.168Z,100.00
2023-04-17T06:05:24.898Z,100.00
2023-04-17T06:08:28.053Z,100.00
2023-04-17T06:11:29.463Z,100.00
2023-04-17T06:14:32.745Z,100.00
2023-04-17T06:17:38.011Z,100.00
2023-04-17T06:20:40.703Z,100.00
2023-04-17T06:23:42.118Z,100.00
2023-04-17T06:26:43.505Z,100.00
2023-04-17T06:29:45.059Z,100.00
2023-04-17T06:32:46.632Z,100.00
2023-04-17T06:35:48.177Z,100.00
2023-04-17T06:38:58.170Z,100.00
2023-04-17T06:41:59.584Z,100.00
2023-04-17T06:45:02.620Z,100.00
2023-04-17T06:48:04.352Z,100.00
2023-04-17T06:51:06.097Z,100.00
2023-04-17T06:54:09.781Z,100.00
2023-04-17T06:57:12.044Z,100.00
2023-04-17T07:00:14.212Z,100.00
2023-04-17T07:03:16.601Z,100.00
2023-04-17T07:06:19.392Z,100.00
2023-04-17T07:09:20.842Z,100.00
2023-04-17T07:12:22.759Z,100.00
2023-04-17T07:15:24.334Z,100.00
2023-04-17T07:18:26.759Z,100.00
2023-04-17T07:21:28.206Z,100.00
2023-04-17T07:24:29.650Z,100.00
2023-04-17T07:27:31.083Z,100.00
2023-04-17T07:30:32.698Z,100.00
2023-04-17T07:33:37.424Z,100.00
2023-04-17T07:36:40.541Z,100.00
2023-04-17T07:39:42.582Z,100.00
2023-04-17T07:42:44.081Z,100.00
2023-04-17T07:45:45.491Z,100.00
2023-04-17T07:48:46.884Z,100.00
2023-04-17T07:51:48.400Z,100.00
2023-04-17T07:54:49.790Z,100.00
2023-04-17T07:57:51.668Z,100.00
2023-04-17T08:00:53.200Z,100.00
2023-04-17T08:03:55.530Z,100.00
2023-04-17T08:06:57.181Z,100.00
2023-04-17T08:09:58.640Z,100.00
2023-04-17T08:13:01.887Z,100.00
2023-04-17T08:16:04.171Z,100.00
2023-04-17T08:19:05.711Z,100.00
2023-04-17T08:22:08.048Z,100.00
2023-04-17T08:25:10.714Z,100.00
2023-04-17T08:28:12.089Z,100.00
2023-04-17T08:31:13.922Z,100.00
2023-04-17T08:34:15.837Z,100.00
2023-04-17T08:37:17.244Z,100.00
2023-04-17T08:40:21.400Z,100.00
2023-04-17T08:43:25.976Z,100.00
2023-04-17T08:46:28.515Z,100.00
2023-04-17T08:49:33.627Z,100.00
2023-04-17T08:52:45.507Z,100.00
2023-04-17T08:55:48.225Z,100.00
2023-04-17T08:58:49.592Z,99.69
2023-04-17T09:02:05.167Z,100.00
2023-04-17T09:05:19.186Z,97.11
2023-04-17T09:08:23.962Z,94.87
2023-04-17T09:11:26.357Z,97.60
2023-04-17T09:14:31.395Z,96.14
2023-04-17T09:17:34.596Z,92.92
2023-04-17T09:20:49.720Z,89.46
2023-04-17T09:23:55.387Z,89.15
2023-04-17T09:27:18.600Z,91.67
2023-04-17T09:30:20.267Z,88.61
2023-04-17T09:33:21.838Z,84.76
2023-04-17T09:36:23.469Z,82.43
2023-04-17T09:39:25.081Z,83.28
2023-04-17T09:42:27.705Z,81.27
2023-04-17T09:45:39.954Z,78.41
2023-04-17T09:48:41.452Z,79.27
2023-04-17T09:51:42.856Z,79.59
2023-04-17T09:54:46.277Z,77.57
2023-04-17T09:57:55.394Z,74.85
2023-04-17T10:00:57.264Z,75.80
2023-04-17T10:03:59.534Z,78.65
2023-04-17T10:07:04.384Z,77.41
2023-04-17T10:10:10.626Z,77.88
2023-04-17T10:13:13.158Z,81.96
2023-04-17T10:16:15.010Z,83.60
2023-04-17T10:19:33.366Z,84.97
2023-04-17T10:22:41.102Z,82.80
2023-04-17T10:25:42.696Z,81.78
2023-04-17T10:28:49.196Z,82.83
2023-04-17T10:32:08.934Z,83.05
2023-04-17T10:35:16.579Z,84.78
2023-04-17T10:38:32.292Z,83.97
2023-04-17T10:41:33.796Z,86.18
2023-04-17T10:44:38.881Z,85.75
2023-04-17T10:47:40.652Z,86.86
2023-04-17T10:50:42.730Z,88.55
2023-04-17T10:53:44.936Z,90.14
2023-04-17T10:56:48.125Z,89.07
2023-04-17T11:00:13.721Z,89.06
2023-04-17T11:03:16.554Z,90.04
2023-04-17T11:06:19.061Z,88.44
2023-04-17T11:09:21.881Z,88.83
2023-04-17T11:12:23.285Z,89.68
2023-04-17T11:15:31.646Z,91.16
2023-04-17T11:18:33.162Z,89.31
2023-04-17T11:21:38.900Z,88.46
2023-04-17T11:24:40.276Z,88.75
2023-04-17T11:27:42.314Z,89.75
2023-04-17T11:30:46.801Z,87.56
2023-04-17T11:33:48.375Z,87.77
2023-04-17T11:36:51.484Z,85.63
2023-04-17T11:39:53.102Z,86.28
2023-04-17T11:42:54.608Z,85.69
2023-04-17T11:45:58.243Z,84.18
2023-04-17T11:48:59.905Z,84.33
2023-04-17T11:52:03.519Z,83.44
2023-04-17T11:55:08.924Z,82.35
2023-04-17T11:58:12.200Z,83.67
2023-04-17T12:01:13.879Z,82.60
2023-04-17T12:04:22.066Z,81.80
2023-04-17T12:07:24.793Z,81.01
2023-04-17T12:10:38.885Z,80.79
2023-04-17T12:13:40.301Z,80.77
2023-04-17T12:16:41.859Z,77.92
2023-04-17T12:19:45.076Z,73.53
2023-04-17T12:22:46.504Z,73.68
2023-04-17T12:25:51.847Z,74.22
2023-04-17T12:28:54.817Z,72.29
2023-04-17T12:31:56.421Z,69.61
2023-04-17T12:35:00.824Z,71.00
2023-04-17T12:38:02.462Z,68.76
2023-04-17T12:41:04.052Z,69.68
2023-04-17T12:44:05.707Z,70.71
2023-04-17T12:47:07.301Z,67.97
2023-04-17T12:50:10.886Z,67.94
2023-04-17T12:53:13.920Z,66.84
2023-04-17T12:56:15.535Z,66.10
2023-04-17T12:59:18.382Z,68.04
2023-04-17T13:02:21.100Z,69.70
2023-04-17T13:05:25.249Z,70.52
2023-04-17T13:08:26.709Z,70.38
2023-04-17T13:11:28.752Z,70.63
2023-04-17T13:14:30.771Z,70.31
2023-04-17T13:17:32.239Z,70.92
2023-04-17T13:20:35.185Z,70.20
2023-04-17T13:23:36.917Z,71.30
2023-04-17T13:26:38.418Z,70.30
2023-04-17T13:29:42.407Z,68.87
2023-04-17T13:32:44.063Z,66.15
2023-04-17T13:35:45.733Z,65.84
2023-04-17T13:38:47.169Z,66.87
2023-04-17T13:41:49.070Z,68.00
2023-04-17T13:44:50.588Z,68.55
2023-04-17T13:47:53.002Z,68.83
2023-04-17T13:50:54.478Z,69.79
2023-04-17T13:53:58.624Z,69.81
2023-04-17T13:57:01.134Z,70.84
2023-04-17T14:00:02.814Z,72.06
2023-04-17T14:03:06.230Z,72.72
2023-04-17T14:06:08.005Z,73.74
2023-04-17T14:09:11.150Z,73.53
2023-04-17T14:12:19.597Z,73.10
2023-04-17T14:15:21.340Z,72.96
2023-04-17T14:18:27.010Z,73.08
2023-04-17T14:21:28.749Z,68.06
2023-04-17T14:24:32.252Z,66.12
2023-04-17T14:27:37.300Z,67.27
2023-04-17T14:30:38.896Z,68.06
2023-04-17T14:33:40.408Z,68.42
2023-04-17T14:36:43.549Z,69.71
2023-04-17T14:39:45.428Z,70.40
2023-04-17T14:42:54.195Z,68.72
2023-04-17T14:45:57.325Z,71.72
2023-04-17T14:48:59.808Z,74.73
2023-04-17T14:52:01.375Z,76.68
2023-04-17T14:55:03.898Z,76.17
2023-04-17T14:58:05.493Z,78.27
2023-04-17T15:01:06.926Z,79.39
2023-04-17T15:04:08.487Z,81.53
2023-04-17T15:07:10.120Z,84.18
2023-04-17T15:10:11.973Z,84.11
2023-04-17T15:13:13.762Z,84.29
2023-04-17T15:16:15.433Z,80.78
2023-04-17T15:19:16.853Z,80.76
2023-04-17T15:22:20.020Z,79.57
2023-04-17T15:25:23.934Z,77.13
2023-04-17T15:28:25.523Z,78.50
2023-04-17T15:31:27.132Z,75.90
2023-04-17T15:34:30.169Z,74.53
2023-04-17T15:37:31.620Z,74.97
2023-04-17T15:40:33.918Z,74.21
2023-04-17T15:43:35.653Z,75.64
2023-04-17T15:46:38.755Z,74.37
2023-04-17T15:49:40.602Z,71.76
2023-04-17T15:52:42.176Z,74.22
2023-04-17T15:55:43.670Z,72.48
2023-04-17T15:58:45.158Z,72.36
2023-04-17T16:01:47.694Z,71.17
2023-04-17T16:04:49.244Z,71.75
2023-04-17T16:07:50.755Z,71.36
2023-04-17T16:10:52.139Z,72.45
2023-04-17T16:13:53.523Z,73.06
2023-04-17T16:16:54.981Z,72.02
2023-04-17T16:19:56.927Z,71.28
2023-04-17T16:22:58.346Z,71.94
2023-04-17T16:25:59.714Z,71.48
2023-04-17T16:29:01.105Z,71.98
2023-04-17T16:32:02.548Z,72.03
2023-04-17T16:35:04.391Z,72.06
2023-04-17T16:38:06.077Z,72.01
2023-04-17T16:41:07.477Z,73.15
2023-04-17T16:44:08.945Z,73.26
2023-04-17T16:47:13.855Z,72.88
2023-04-17T16:50:15.889Z,73.65
2023-04-17T16:53:17.895Z,72.08
2023-04-17T16:56:19.390Z,71.97
2023-04-17T16:59:20.838Z,71.49
2023-04-17T17:02:23.108Z,72.84
2023-04-17T17:05:24.691Z,70.55
2023-04-17T17:08:26.481Z,69.46
2023-04-17T17:11:27.861Z,70.22
2023-04-17T17:14:29.328Z,70.99
2023-04-17T17:17:30.791Z,71.24
2023-04-17T17:20:32.270Z,72.38
2023-04-17T17:23:34.492Z,72.50
2023-04-17T17:26:36.771Z,73.40
2023-04-17T17:29:38.696Z,74.38
2023-04-17T17:32:41.001Z,73.70
2023-04-17T17:35:43.192Z,72.74
2023-04-17T17:38:44.617Z,73.79
2023-04-17T17:41:47.438Z,74.67
2023-04-17T17:44:49.108Z,75.09
2023-04-17T17:47:50.634Z,75.75
2023-04-17T17:50:54.872Z,76.39
2023-04-17T17:53:56.296Z,76.09
2023-04-17T17:56:57.929Z,75.56
2023-04-17T17:59:59.936Z,74.66
2023-04-17T18:03:02.188Z,75.67
2023-04-17T18:06:04.005Z,75.24
2023-04-17T18:09:05.459Z,76.31
2023-04-17T18:12:07.544Z,76.31
2023-04-17T18:15:09.363Z,75.26
2023-04-17T18:18:10.830Z,75.95
2023-04-17T18:21:12.709Z,76.15
2023-04-17T18:24:14.439Z,74.56
2023-04-17T18:27:16.082Z,75.05
2023-04-17T18:30:17.462Z,73.08
2023-04-17T18:33:19.024Z,72.25
2023-04-17T18:36:20.398Z,71.30
2023-04-17T18:39:21.866Z,69.89
2023-04-17T18:42:23.414Z,69.06
2023-04-17T18:45:24.984Z,68.49
2023-04-17T18:48:26.485Z,67.92
2023-04-17T18:51:28.104Z,68.10
2023-04-17T18:54:29.691Z,67.25
2023-04-17T18:57:31.110Z,67.92
2023-04-17T19:00:32.763Z,68.75
2023-04-17T19:03:34.890Z,68.81
2023-04-17T19:06:36.421Z,67.91
2023-04-17T19:09:37.798Z,67.90
2023-04-17T19:12:39.979Z,68.71
2023-04-17T19:15:41.418Z,69.57
2023-04-17T19:18:42.833Z,68.88
2023-04-17T19:21:44.218Z,69.55
2023-04-17T19:24:49.641Z,70.27
2023-04-17T19:27:51.105Z,70.80
2023-04-17T19:30:52.493Z,70.62
2023-04-17T19:33:57.141Z,70.81
2023-04-17T19:36:58.677Z,69.41
2023-04-17T19:40:01.336Z,70.28
2023-04-17T19:43:03.956Z,71.85
2023-04-17T19:46:05.386Z,73.28
2023-04-17T19:49:07.030Z,72.47
2023-04-17T19:52:09.385Z,74.08
2023-04-17T19:55:11.490Z,72.34
2023-04-17T19:58:12.882Z,74.26
2023-04-17T20:01:14.891Z,75.75
2023-04-17T20:04:16.928Z,74.46
2023-04-17T20:07:18.477Z,75.40
2023-04-17T20:10:20.113Z,75.05
2023-04-17T20:13:22.143Z,74.89
2023-04-17T20:16:24.054Z,76.45
2023-04-17T20:19:25.628Z,77.02
2023-04-17T20:22:27.016Z,77.30
2023-04-17T20:25:30.281Z,75.33
2023-04-17T20:28:31.718Z,76.38
2023-04-17T20:31:36.153Z,73.69
2023-04-17T20:34:37.960Z,72.39
2023-04-17T20:37:40.574Z,71.44
2023-04-17T20:40:42.076Z,71.86
2023-04-17T20:43:43.545Z,71.86
2023-04-17T20:46:44.977Z,72.08
2023-04-17T20:49:46.408Z,72.31
2023-04-17T20:52:47.830Z,72.55
2023-04-17T20:55:49.222Z,73.01
2023-04-17T20:58:50.757Z,72.46
2023-04-17T21:01:52.392Z,72.50
2023-04-17T21:04:53.971Z,72.46
2023-04-17T21:07:57.541Z,73.20
2023-04-17T21:10:59.003Z,73.55
2023-04-17T21:14:00.412Z,73.06
2023-04-17T21:17:01.864Z,72.03
2023-04-17T21:20:04.856Z,72.37
2023-04-17T21:23:06.957Z,73.31
2023-04-17T21:26:08.494Z,73.16
2023-04-17T21:29:09.866Z,73.19
2023-04-17T21:32:11.323Z,72.93
2023-04-17T21:35:12.843Z,72.09
2023-04-17T21:38:14.262Z,71.99
2023-04-17T21:41:15.836Z,72.55
2023-04-17T21:44:17.279Z,73.56
2023-04-17T21:47:19.536Z,71.82
2023-04-17T21:50:20.956Z,71.93
2023-04-17T21:53:22.357Z,72.30
2023-04-17T21:56:24.450Z,72.94
2023-04-17T21:59:25.862Z,73.08
2023-04-17T22:02:27.362Z,72.46
2023-04-17T22:05:28.780Z,70.76
2023-04-17T22:08:30.235Z,71.23
2023-04-17T22:11:31.626Z,72.05
2023-04-17T22:14:33.037Z,72.18
2023-04-17T22:17:34.585Z,71.12
2023-04-17T22:20:36.355Z,69.70
2023-04-17T22:23:37.734Z,70.28
2023-04-17T22:26:39.140Z,70.42
2023-04-17T22:29:40.581Z,69.63
2023-04-17T22:32:42.384Z,70.48
2023-04-17T22:35:43.830Z,71.18
2023-04-17T22:38:45.363Z,72.01
2023-04-17T22:41:46.957Z,71.21
2023-04-17T22:44:48.329Z,70.65
2023-04-17T22:47:49.837Z,70.71
2023-04-17T22:50:51.268Z,71.28
2023-04-17T22:53:52.807Z,72.26
2023-04-17T22:56:54.195Z,72.14
2023-04-17T22:59:55.602Z,72.54
2023-04-17T23:02:57.266Z,72.31
2023-04-17T23:05:58.768Z,71.05
2023-04-17T23:09:00.183Z,71.72
2023-04-17T23:12:02.119Z,72.17
2023-04-17T23:15:04.159Z,71.42
2023-04-17T23:18:05.707Z,71.13
2023-04-17T23:21:07.208Z,71.48
2023-04-17T23:24:08.742Z,71.34
2023-04-17T23:27:10.140Z,72.41
2023-04-17T23:30:11.920Z,72.98
2023-04-17T23:33:13.326Z,69.67
2023-04-17T23:36:14.823Z,70.63
2023-04-17T23:39:16.184Z,69.03
2023-04-17T23:42:17.653Z,69.89
2023-04-17T23:45:19.047Z,69.61
2023-04-17T23:48:20.493Z,70.43
2023-04-17T23:51:21.865Z,70.97
2023-04-17T23:54:23.319Z,70.23
2023-04-17T23:57:24.876Z,69.82
